Time;durP1;ratioP1;P1;durP2;ratioP2;P2;SDS_P1;SDS_P2;PMS_P1;PMS_P2;Temp;Humidity;BMP_temperature;BMP_pressure;BME280_temperature;BME280_humidity;BME280_pressure;Samples;Min_cycle;Max_cycle;Signal;HPM_P1;HPM_P2
2024/04/12 00:01:15;;;;;;;3.60;2.05;;;;;;;8.16;50.60;99245.03;5539924;25;20004;-67
2024/04/12 00:03:41;;;;;;;5.53;2.45;;;;;;;8.10;50.78;99238.03;5544679;25;20012;-67
2024/04/12 00:06:17;;;;;;;4.97;1.92;;;;;;;8.05;51.25;99239.72;5510878;25;20016;-66
2024/04/12 00:08:52;;;;;;;4.30;2.10;;;;;;;8.03;51.13;99231.22;5542821;25;20006;-66
2024/04/12 00:11:19;;;;;;;2.40;1.90;;;;;;;8.03;51.23;99233.84;5536472;25;20009;-67
2024/04/12 00:13:47;;;;;;;5.45;2.40;;;;;;;8.01;51.04;99238.56;5563536;25;20067;-66
2024/04/12 00:16:16;;;;;;;2.92;2.22;;;;;;;7.97;50.97;99240.84;5563365;25;20008;-67
2024/04/12 00:18:46;;;;;;;3.88;1.98;;;;;;;7.94;51.05;99223.63;5563838;25;20000;-66
2024/04/12 00:21:12;;;;;;;3.00;1.95;;;;;;;7.97;51.25;99228.47;5524490;25;20006;-67
2024/04/12 00:23:39;;;;;;;4.75;2.28;;;;;;;7.96;51.20;99221.56;5526398;25;20340;-66
2024/04/12 00:26:05;;;;;;;5.25;2.40;;;;;;;7.96;50.92;99229.47;5513748;25;20477;-67
2024/04/12 00:28:32;;;;;;;5.10;2.05;;;;;;;7.98;51.02;99229.25;5561688;25;20016;-67
2024/04/12 00:31:02;;;;;;;2.72;1.95;;;;;;;8.00;50.96;99232.50;5524330;26;20001;-68
2024/04/12 00:33:34;;;;;;;4.60;2.50;;;;;;;8.02;50.77;99226.97;5525930;25;20016;-66
2024/04/12 00:36:08;;;;;;;3.47;2.10;;;;;;;7.99;51.41;99220.31;5538156;25;20347;-66
2024/04/12 00:38:38;;;;;;;3.70;2.35;;;;;;;7.99;50.95;99220.31;5563342;25;20000;-67
2024/04/12 00:41:14;;;;;;;8.32;2.30;;;;;;;7.99;51.05;99222.16;5563245;25;20015;-67
2024/04/12 00:44:15;;;;;;;6.57;2.25;;;;;;;7.99;50.77;99214.22;5563354;25;20008;-66
2024/04/12 00:46:33;;;;;;;4.20;2.25;;;;;;;8.01;50.92;99206.91;5557548;25;20015;-66
2024/04/12 00:49:06;;;;;;;4.93;2.08;;;;;;;8.04;50.80;99209.09;5561794;25;19997;-65
2024/04/12 00:51:33;;;;;;;4.55;2.40;;;;;;;8.03;50.87;99199.53;5525451;25;20006;-66
2024/04/12 00:54:00;;;;;;;5.10;2.42;;;;;;;8.09;50.69;99209.19;5524168;26;19997;-64
2024/04/12 00:56:27;;;;;;;5.18;2.15;;;;;;;8.07;50.78;99206.78;5534072;25;20015;-67
2024/04/12 00:58:59;;;;;;;6.40;2.10;;;;;;;8.01;50.45;99197.13;5563612;25;19997;-65
2024/04/12 01:01:26;;;;;;;7.47;2.47;;;;;;;8.03;50.83;99203.00;5560969;25;20001;-65
2024/04/12 01:03:55;;;;;;;7.63;2.40;;;;;;;8.06;50.54;99207.00;5530290;25;19997;-66
2024/04/12 01:06:25;;;;;;;6.10;2.40;;;;;;;8.06;50.77;99197.28;5563219;25;20004;-66
2024/04/12 01:08:54;;;;;;;5.15;2.40;;;;;;;8.04;50.51;99193.25;5561605;25;20449;-66
2024/04/12 01:11:21;;;;;;;6.63;2.40;;;;;;;8.06;50.52;99199.09;5561226;25;20029;-66
2024/04/12 01:13:48;;;;;;;8.40;2.83;;;;;;;8.08;50.83;99200.47;5529041;25;20322;-64
2024/04/12 01:16:15;;;;;;;7.55;2.42;;;;;;;8.11;50.74;99199.22;5563597;25;20053;-66
2024/04/12 01:18:44;;;;;;;4.85;2.25;;;;;;;8.14;50.84;99190.84;5563483;25;20126;-66
2024/04/12 01:21:10;;;;;;;7.00;3.10;;;;;;;8.11;51.02;99178.91;5561778;25;20005;-65
2024/04/12 01:23:37;;;;;;;5.35;2.47;;;;;;;8.16;50.81;99186.97;5561494;25;20001;-65
2024/04/12 01:26:03;;;;;;;4.10;2.28;;;;;;;8.18;51.09;99178.81;5530368;25;20032;-65
2024/04/12 01:28:28;;;;;;;6.13;2.88;;;;;;;8.20;50.83;99180.19;5563193;25;20088;-65
2024/04/12 01:30:59;;;;;;;4.78;2.83;;;;;;;8.25;50.43;99181.34;5563359;25;20068;-66
2024/04/12 01:33:25;;;;;;;10.90;3.00;;;;;;;8.29;50.36;99171.94;5561158;25;20005;-67
2024/04/12 01:35:53;;;;;;;5.65;2.60;;;;;;;8.32;50.19;99171.47;5561461;25;20024;-68
2024/04/12 01:38:20;;;;;;;5.43;2.88;;;;;;;8.36;50.29;99165.53;5562992;25;20093;-67
2024/04/12 01:40:56;;;;;;;4.88;2.70;;;;;;;8.37;50.22;99167.13;5563177;25;20004;-66
2024/04/12 01:43:32;;;;;;;10.48;3.78;;;;;;;8.36;50.14;99160.25;5560836;25;20041;-65
2024/04/12 01:45:58;;;;;;;6.30;3.53;;;;;;;8.34;49.98;99157.03;5531396;25;20102;-66
2024/04/12 01:48:24;;;;;;;7.32;3.80;;;;;;;8.35;50.57;99160.47;5492623;26;20474;-66
2024/04/12 01:50:53;;;;;;;5.00;3.08;;;;;;;8.35;50.09;99161.28;5525700;25;20543;-65
2024/04/12 01:53:21;;;;;;;9.27;3.13;;;;;;;8.38;50.62;99154.72;5535890;25;20045;-65
2024/04/12 01:55:50;;;;;;;4.38;2.83;;;;;;;8.36;50.10;99154.97;5562888;25;20008;-67
2024/04/12 01:58:20;;;;;;;4.22;3.00;;;;;;;8.42;50.39;99169.13;5561076;25;20469;-66
2024/04/12 02:00:46;;;;;;;3.97;2.67;;;;;;;8.44;50.46;99150.41;5529563;25;20035;-67
2024/04/12 02:03:13;;;;;;;7.15;3.53;;;;;;;8.46;50.58;99157.06;5562671;25;20013;-65
2024/04/12 02:05:39;;;;;;;6.93;3.35;;;;;;;8.47;50.68;99145.47;5562888;25;20359;-66
2024/04/12 02:08:16;;;;;;;5.20;3.33;;;;;;;8.40;50.72;99147.41;5562345;25;20015;-66
2024/04/12 02:10:44;;;;;;;4.95;3.10;;;;;;;8.45;50.28;99146.75;5562679;25;20497;-67
2024/04/12 02:13:16;;;;;;;7.85;2.88;;;;;;;8.45;50.50;99144.09;5522532;25;20017;-67
2024/04/12 02:15:48;;;;;;;5.78;2.83;;;;;;;8.46;50.34;99140.41;5562036;25;20008;-65
2024/04/12 02:18:19;;;;;;;9.80;2.95;;;;;;;8.43;50.57;99132.94;5562806;25;20001;-65
2024/04/12 02:20:51;;;;;;;4.97;2.88;;;;;;;8.44;50.39;99126.63;5523167;26;20486;-66
2024/04/12 02:23:21;;;;;;;5.82;3.05;;;;;;;8.43;50.54;99128.47;5526261;25;20009;-67
2024/04/12 02:25:49;;;;;;;4.07;3.00;;;;;;;8.40;50.93;99126.28;5556092;25;20019;-66
2024/04/12 02:28:16;;;;;;;8.07;3.00;;;;;;;8.36;50.30;99115.34;5560682;25;20846;-65
2024/04/12 02:30:45;;;;;;;8.88;3.63;;;;;;;8.43;50.48;99123.19;5561603;25;20134;-66
2024/04/12 02:33:16;;;;;;;6.43;3.05;;;;;;;8.48;50.64;99119.88;5561922;25;20005;-66
2024/04/12 02:35:43;;;;;;;8.05;3.60;;;;;;;8.51;50.34;99117.56;5561947;25;20044;-66
2024/04/12 02:38:20;;;;;;;7.45;3.67;;;;;;;8.47;50.59;99108.50;5560598;25;20015;-65
2024/04/12 02:40:48;;;;;;;4.68;3.17;;;;;;;8.47;50.77;99108.50;5562041;25;20069;-66
2024/04/12 02:43:15;;;;;;;6.68;3.25;;;;;;;8.45;50.51;99117.69;5560392;25;20005;-66
2024/04/12 02:45:52;;;;;;;6.95;2.90;;;;;;;8.41;51.20;99102.28;5559832;25;20457;-66
2024/04/12 02:48:21;;;;;;;6.68;3.10;;;;;;;8.46;50.71;99098.94;5529013;25;20375;-66
2024/04/12 02:50:55;;;;;;;6.13;3.10;;;;;;;8.50;50.79;99104.56;5560208;25;20001;-66
2024/04/12 02:53:22;;;;;;;8.20;3.30;;;;;;;8.56;50.86;99101.00;5560603;25;20000;-65
2024/04/12 02:56:24;;;;;;;5.75;2.80;;;;;;;8.68;50.37;99099.19;5561891;25;20488;-68
2024/04/12 02:58:52;;;;;;;6.45;3.38;;;;;;;8.69;50.53;99098.13;5503259;25;20350;-65
2024/04/12 03:01:19;;;;;;;6.18;3.00;;;;;;;8.74;50.14;99097.44;5545397;25;19996;-67
2024/04/12 03:03:48;;;;;;;7.28;2.97;;;;;;;8.72;50.24;99087.09;5559529;25;20391;-66
2024/04/12 03:06:17;;;;;;;4.25;2.90;;;;;;;8.77;50.23;99095.13;5559949;25;20001;-65
2024/04/12 03:08:48;;;;;;;4.72;2.95;;;;;;;8.75;50.35;99101.69;5529157;25;20330;-67
2024/04/12 03:11:33;;;;;;;6.95;3.33;;;;;;;8.82;50.66;99078.56;5561567;25;20001;-66
2024/04/12 03:14:12;;;;;;;7.53;3.15;;;;;;;8.85;50.03;99084.22;5524495;25;20009;-65
2024/04/12 03:16:42;;;;;;;6.43;2.97;;;;;;;8.84;50.46;99084.44;5505440;26;20013;-66
2024/04/12 03:19:10;;;;;;;8.52;2.65;;;;;;;8.84;50.20;99085.22;5524664;25;20001;-66
2024/04/12 03:21:38;;;;;;;4.65;2.70;;;;;;;8.86;50.37;99077.09;5541173;25;20048;-66
2024/04/12 03:24:08;;;;;;;6.28;2.78;;;;;;;8.92;50.28;99067.41;5528986;25;20003;-66
2024/04/12 03:26:35;;;;;;;5.28;2.55;;;;;;;8.93;50.51;99063.72;5560734;25;20020;-65
2024/04/12 03:29:05;;;;;;;5.32;2.70;;;;;;;8.99;50.44;99065.44;5560267;25;20509;-67
2024/04/12 03:31:33;;;;;;;;;;;;;;;9.02;50.81;99060.47;5530321;25;20001;-67
2024/04/12 03:34:00;;;;;;;4.95;2.67;;;;;;;8.97;51.18;99062.22;5559857;25;19934;-67
2024/04/12 03:36:33;;;;;;;3.55;2.47;;;;;;;8.96;51.68;99066.69;5561122;25;20009;-68
2024/04/12 03:42:08;;;;;;;7.25;3.00;;;;;;;8.98;52.49;99059.34;5559721;25;20012;-66
2024/04/12 03:44:36;;;;;;;7.57;2.40;;;;;;;9.04;52.71;99061.03;5559547;25;20000;-66
2024/04/12 03:47:08;;;;;;;5.95;2.80;;;;;;;9.02;53.51;99051.75;5560915;25;19997;-66
2024/04/12 03:49:41;;;;;;;5.53;2.55;;;;;;;9.02;53.59;99052.53;5560951;25;20012;-68
2024/04/12 03:52:12;;;;;;;5.97;2.70;;;;;;;8.95;53.84;99057.16;5560846;25;20004;-66
2024/04/12 03:54:39;;;;;;;5.05;2.60;;;;;;;8.90;54.52;99059.72;5528071;25;20001;-66
2024/04/12 03:57:06;;;;;;;6.07;2.83;;;;;;;8.91;55.11;99053.38;5561043;25;20028;-67
2024/04/12 03:59:34;;;;;;;5.50;2.40;;;;;;;8.99;54.74;99058.28;5560827;25;19997;-67
2024/04/12 04:02:07;;;;;;;5.20;2.65;;;;;;;9.05;55.10;99065.28;5560788;25;19993;-67
2024/04/12 04:04:37;;;;;;;5.10;2.60;;;;;;;9.05;55.17;99049.44;5559172;25;19997;-67
2024/04/12 04:07:10;;;;;;;9.73;2.70;;;;;;;9.09;55.15;99063.00;5560819;25;20008;-66
2024/04/12 04:09:38;;;;;;;5.13;2.58;;;;;;;9.14;55.25;99057.00;5547324;25;20028;-66
2024/04/12 04:12:04;;;;;;;5.18;2.60;;;;;;;9.09;55.72;99050.56;5538502;25;20002;-66
2024/04/12 04:14:32;;;;;;;8.20;2.88;;;;;;;9.07;57.18;99039.44;5538389;25;19997;-67
2024/04/12 04:17:02;;;;;;;5.60;2.78;;;;;;;9.17;55.79;99043.28;5541646;25;20012;-68
2024/04/12 04:19:33;;;;;;;7.00;2.70;;;;;;;9.18;55.76;99050.22;5523158;25;20010;-67
2024/04/12 04:22:04;;;;;;;6.68;2.83;;;;;;;9.09;55.87;99020.69;5560926;25;20346;-68
2024/04/12 04:24:33;;;;;;;6.13;2.38;;;;;;;9.35;55.65;99043.09;5490934;25;20001;-66
2024/04/12 04:27:03;;;;;;;7.15;2.45;;;;;;;9.44;55.85;99044.34;5491049;26;20005;-66
2024/04/12 04:29:29;;;;;;;;;;;;;;;9.50;55.35;99045.19;5550792;25;20028;-67
2024/04/12 04:31:56;;;;;;;6.43;2.85;;;;;;;9.48;55.58;99029.59;5560265;25;19922;-67
2024/04/12 04:34:22;;;;;;;6.60;2.50;;;;;;;9.65;55.31;99036.75;5557438;25;20472;-68
2024/04/12 04:36:49;;;;;;;5.80;2.90;;;;;;;9.76;54.60;99033.19;5556514;25;19989;-68
2024/04/12 04:39:23;;;;;;;5.10;2.90;;;;;;;9.66;55.41;99033.03;5562887;25;20071;-68
2024/04/12 04:41:50;;;;;;;7.10;2.72;;;;;;;9.86;54.82;99025.44;5531772;25;19993;-66
2024/04/12 04:44:16;;;;;;;3.55;2.40;;;;;;;9.99;54.59;99026.94;5561202;25;20084;-68
2024/04/12 04:46:46;;;;;;;7.75;2.80;;;;;;;10.05;54.16;99030.47;5561906;25;19993;-67
2024/04/12 04:49:13;;;;;;;6.07;2.65;;;;;;;10.08;54.21;99027.34;5563374;25;20414;-67
2024/04/12 04:51:40;;;;;;;5.47;2.92;;;;;;;10.14;54.09;99013.91;5563749;25;20450;-68
2024/04/12 04:54:11;;;;;;;4.75;2.72;;;;;;;10.27;53.99;99006.72;5553072;25;19993;-67
2024/04/12 04:56:41;;;;;;;3.72;2.42;;;;;;;10.46;53.59;99002.72;5524262;26;20002;-69
2024/04/12 04:59:16;;;;;;;5.57;2.95;;;;;;;10.66;53.20;99007.47;5530570;25;20124;-68
2024/04/12 05:01:48;;;;;;;6.07;2.80;;;;;;;10.74;52.65;99006.25;5542039;25;20016;-67
2024/04/12 05:04:16;;;;;;;4.90;2.70;;;;;;;10.74;52.93;99011.56;5540971;25;20072;-66
2024/04/12 05:06:43;;;;;;;6.82;2.70;;;;;;;10.85;52.55;99000.81;5552410;25;20005;-68
2024/04/12 05:09:09;;;;;;;5.32;3.22;;;;;;;10.91;52.51;98996.34;5561973;25;19997;-68
2024/04/12 05:11:38;;;;;;;6.85;2.60;;;;;;;10.99;52.16;98992.47;5562822;25;20001;-67
2024/04/12 05:14:14;;;;;;;10.55;2.97;;;;;;;10.91;52.43;98994.53;5561535;25;20007;-68
2024/04/12 05:16:43;;;;;;;4.95;2.40;;;;;;;10.90;52.33;98995.56;5563925;25;20354;-68
2024/04/12 05:19:09;;;;;;;5.57;2.70;;;;;;;10.87;52.66;98989.94;5561568;25;20001;-69
2024/04/12 05:21:38;;;;;;;5.15;2.60;;;;;;;10.76;52.91;98985.56;5561597;25;19997;-63
2024/04/12 05:24:09;;;;;;;4.73;2.70;;;;;;;10.88;52.79;98984.41;5561738;25;19993;-67
2024/04/12 05:26:41;;;;;;;5.53;2.60;;;;;;;10.93;52.60;98972.25;5563182;25;20322;-68
2024/04/12 05:29:12;;;;;;;4.50;2.85;;;;;;;11.05;52.76;98970.25;5530725;25;20017;-65
2024/04/12 05:31:44;;;;;;;5.72;2.40;;;;;;;11.14;52.46;98972.19;5561607;25;20016;-67
2024/04/12 05:34:18;;;;;;;6.80;2.85;;;;;;;11.20;52.38;98961.63;5563395;25;20468;-69
2024/04/12 05:36:47;;;;;;;4.18;2.58;;;;;;;11.31;52.20;98955.38;5523832;26;20412;-67
2024/04/12 05:39:13;;;;;;;4.78;2.90;;;;;;;11.44;51.97;98944.34;5523947;26;20001;-66
2024/04/12 05:41:44;;;;;;;7.95;3.00;;;;;;;11.49;52.02;98939.06;5552190;25;20008;-68
2024/04/12 05:44:11;;;;;;;8.05;2.75;;;;;;;11.62;51.33;98939.66;5561140;25;20019;-70
2024/04/12 05:46:39;;;;;;;5.40;2.70;;;;;;;11.66;51.38;98932.81;5560548;25;20019;-66
2024/04/12 05:49:11;;;;;;;6.25;2.92;;;;;;;11.85;51.41;98933.19;5562841;25;20000;-66
2024/04/12 05:51:41;;;;;;;7.88;2.80;;;;;;;12.07;50.74;98931.22;5522733;26;20008;-66
2024/04/12 05:54:15;;;;;;;3.85;2.75;;;;;;;12.19;50.03;98931.00;5508937;25;20011;-65
2024/04/12 05:56:44;;;;;;;8.52;2.72;;;;;;;12.20;50.21;98940.56;5561368;25;20004;-65
2024/04/12 05:59:13;;;;;;;7.10;3.72;;;;;;;12.28;50.19;98927.59;5560384;25;20068;-65
2024/04/12 06:01:43;;;;;;;7.35;2.70;;;;;;;12.39;50.41;98922.34;5559976;25;20008;-66
2024/04/12 06:04:13;;;;;;;5.68;2.70;;;;;;;12.48;49.89;98931.41;5529094;25;20011;-64
2024/04/12 06:06:42;;;;;;;7.05;3.25;;;;;;;12.47;49.78;98933.28;5560907;25;20000;-66
2024/04/12 06:09:19;;;;;;;8.40;2.70;;;;;;;12.58;49.95;98928.75;5562726;25;20001;-66
2024/04/12 06:11:53;;;;;;;6.28;2.83;;;;;;;12.74;49.04;98916.31;5560880;25;20354;-66
2024/04/12 06:14:21;;;;;;;7.55;2.67;;;;;;;12.69;49.64;98913.66;5562464;25;20011;-67
2024/04/12 06:16:56;;;;;;;5.35;2.78;;;;;;;12.75;48.93;98917.91;5560375;25;20001;-66
2024/04/12 06:19:24;;;;;;;7.43;3.10;;;;;;;12.92;48.64;98923.00;5562454;25;19996;-67
2024/04/12 06:21:50;;;;;;;6.45;2.70;;;;;;;12.93;48.56;98924.59;5561862;25;20004;-67
2024/04/12 06:24:26;;;;;;;5.22;2.72;;;;;;;12.94;48.54;98936.81;5561943;25;20034;-66
2024/04/12 06:26:54;;;;;;;7.53;3.20;;;;;;;12.94;48.84;98929.66;5525034;25;20021;-65
2024/04/12 06:29:22;;;;;;;7.15;2.83;;;;;;;13.01;48.93;98925.94;5524665;25;19993;-65
2024/04/12 06:31:53;;;;;;;4.28;2.70;;;;;;;13.05;48.59;98913.69;5494210;26;20097;-64
2024/04/12 06:34:19;;;;;;;8.30;3.30;;;;;;;13.16;48.50;98917.97;5493333;26;20008;-65
2024/04/12 06:36:56;;;;;;;7.53;2.78;;;;;;;13.32;48.70;98922.25;5529142;25;19997;-66
2024/04/12 06:39:28;;;;;;;6.78;2.78;;;;;;;13.36;48.05;98926.00;5554754;25;20088;-67
2024/04/12 06:41:54;;;;;;;5.63;2.55;;;;;;;13.27;48.06;98922.28;5541130;25;20001;-67
2024/04/12 06:44:21;;;;;;;5.10;2.70;;;;;;;13.28;48.45;98921.19;5542184;25;20013;-66
2024/04/12 06:46:51;;;;;;;5.55;2.75;;;;;;;13.38;48.46;98928.38;5540294;25;20001;-66
2024/04/12 06:49:19;;;;;;;6.88;2.90;;;;;;;13.43;48.32;98927.59;5542164;25;20000;-66
2024/04/12 06:54:35;;;;;;;7.00;2.50;;;;;;;13.45;48.25;98928.13;5539726;25;19997;-66
2024/04/12 06:57:06;;;;;;;6.63;2.60;;;;;;;13.42;48.26;98918.81;5544673;25;19998;-66
2024/04/12 06:59:36;;;;;;;4.55;2.35;;;;;;;13.45;48.27;98930.78;5536263;25;19998;-66
2024/04/12 07:02:07;;;;;;;5.25;2.40;;;;;;;13.55;48.78;98917.44;5540497;25;20033;-66
2024/04/12 07:04:38;;;;;;;5.82;2.47;;;;;;;13.57;48.64;98910.78;5542340;25;20008;-65
2024/04/12 07:07:04;;;;;;;5.43;2.75;;;;;;;13.57;48.41;98918.78;5559667;25;20025;-66
2024/04/12 07:09:32;;;;;;;7.13;2.45;;;;;;;13.46;48.39;98914.53;5559360;25;19997;-66
2024/04/12 07:12:05;;;;;;;4.13;2.35;;;;;;;13.42;48.92;98918.00;5525922;25;20354;-66
2024/04/12 07:14:39;;;;;;;4.95;2.08;;;;;;;13.38;49.42;98902.56;5527332;25;20028;-64
2024/04/12 07:17:19;;;;;;;4.22;2.20;;;;;;;13.44;49.41;98905.22;5555715;25;20053;-66
2024/04/12 07:19:49;;;;;;;5.65;2.53;;;;;;;13.56;49.22;98909.22;5557520;25;20766;-66
2024/04/12 07:22:19;;;;;;;7.00;2.25;;;;;;;13.67;48.95;98917.16;5557192;25;20025;-65
2024/04/12 07:24:52;;;;;;;5.10;2.17;;;;;;;13.74;49.01;98909.72;5556719;25;20003;-65
2024/04/12 07:27:24;;;;;;;4.93;2.30;;;;;;;13.73;48.91;98914.22;5526889;25;20020;-65
2024/04/12 07:29:50;;;;;;;17.63;3.03;;;;;;;13.79;49.18;98909.69;5557737;25;19996;-64
2024/04/12 07:32:22;;;;;;;5.50;2.35;;;;;;;13.75;48.93;98904.09;5524510;25;20000;-65
2024/04/12 07:34:51;;;;;;;4.97;1.98;;;;;;;13.83;49.28;98908.09;5532428;25;20071;-65
2024/04/12 07:37:26;;;;;;;7.47;2.70;;;;;;;13.89;49.22;98908.88;5538069;25;20005;-66
2024/04/12 07:40:17;;;;;;;7.57;2.95;;;;;;;13.90;49.37;98913.94;5535255;25;20001;-65
2024/04/12 07:42:48;;;;;;;6.30;2.00;;;;;;;13.95;49.53;98908.59;5537447;25;20438;-64
2024/04/12 07:45:20;;;;;;;5.68;2.10;;;;;;;13.87;49.52;98917.13;5537344;25;20110;-66
2024/04/12 07:47:52;;;;;;;6.85;2.15;;;;;;;13.74;49.89;98907.84;5538366;25;20481;-65
2024/04/12 07:50:29;;;;;;;5.82;2.20;;;;;;;13.68;49.92;98911.59;5541794;25;20118;-67
2024/04/12 07:52:58;;;;;;;5.93;2.15;;;;;;;13.68;49.92;98911.59;5552950;25;20390;-64
2024/04/12 07:55:26;;;;;;;5.10;2.38;;;;;;;13.71;50.11;98905.72;5560368;25;20012;-62
2024/04/12 07:57:52;;;;;;;5.78;2.13;;;;;;;13.76;49.96;98904.91;5560649;25;20000;-65
2024/04/12 08:00:35;;;;;;;5.78;2.00;;;;;;;13.72;50.29;98901.19;5558679;25;20012;-64
2024/04/12 08:03:07;;;;;;;6.43;2.40;;;;;;;13.72;50.65;98907.31;5560210;25;20339;-64
2024/04/12 08:05:49;;;;;;;6.32;2.20;;;;;;;13.72;50.73;98906.53;5560554;25;20354;-64
2024/04/12 08:08:27;;;;;;;5.10;2.47;;;;;;;13.71;50.60;98916.38;5545340;25;20006;-64
2024/04/12 08:10:56;;;;;;;5.55;2.45;;;;;;;13.42;51.07;98907.38;5549676;25;20549;-65
2024/04/12 08:13:28;;;;;;;8.02;2.30;;;;;;;13.39;51.59;98903.38;5532143;25;20005;-65
2024/04/12 08:15:59;;;;;;;3.65;2.10;;;;;;;13.41;51.61;98906.53;5518375;25;20009;-61
2024/04/12 08:18:28;;;;;;;4.57;2.00;;;;;;;13.46;51.56;98901.22;5525371;25;20005;-64
2024/04/12 08:21:01;;;;;;;5.22;2.17;;;;;;;13.52;51.50;98894.03;5552299;25;20064;-63
2024/04/12 08:23:29;;;;;;;3.47;1.88;;;;;;;13.57;51.66;98902.00;5511363;26;20040;-64
2024/04/12 08:25:58;;;;;;;2.90;2.03;;;;;;;13.63;51.57;98893.75;5546636;25;20000;-63
2024/04/12 08:28:24;;;;;;;2.17;1.63;;;;;;;13.74;51.11;98894.53;5520020;25;20045;-63
2024/04/12 08:30:53;;;;;;;4.68;2.13;;;;;;;13.85;50.96;98895.28;5542110;25;19993;-64
2024/04/12 08:33:24;;;;;;;3.23;1.70;;;;;;;13.92;51.04;98884.38;5547582;25;20029;-63
2024/04/12 08:35:55;;;;;;;3.40;2.00;;;;;;;13.89;51.02;98890.25;5543279;25;20001;-63
2024/04/12 08:38:22;;;;;;;6.18;2.58;;;;;;;13.89;51.37;98892.91;5562526;25;20357;-61
2024/04/12 08:40:52;;;;;;;4.82;2.03;;;;;;;13.92;50.93;98881.69;5524608;25;20009;-63
2024/04/12 08:43:41;;;;;;;5.63;2.40;;;;;;;13.94;51.07;98883.03;5464012;26;20009;-61
2024/04/12 08:46:17;;;;;;;4.57;2.00;;;;;;;13.95;51.15;98873.97;5504514;26;20024;-62
2024/04/12 08:48:46;;;;;;;5.40;2.10;;;;;;;14.15;51.03;98877.59;5561989;25;20477;-63
2024/04/12 08:51:21;;;;;;;3.53;1.80;;;;;;;14.32;50.46;98872.72;5563372;25;20481;-61
2024/04/12 08:53:55;;;;;;;3.17;2.05;;;;;;;14.34;50.28;98875.13;5531289;25;19997;-63
2024/04/12 08:56:28;;;;;;;5.90;2.05;;;;;;;14.45;49.82;98872.13;5563423;25;19997;-64
2024/04/12 08:58:59;;;;;;;3.78;1.92;;;;;;;14.54;50.03;98865.19;5523862;26;20358;-63
2024/04/12 09:01:26;;;;;;;5.18;2.45;;;;;;;14.54;49.80;98869.72;5524999;25;20356;-62
2024/04/12 09:04:03;;;;;;;4.32;2.10;;;;;;;14.58;49.82;98862.75;5524743;25;20095;-62
2024/04/12 09:06:29;;;;;;;4.90;2.17;;;;;;;14.64;49.40;98852.84;5536509;25;20023;-62
2024/04/12 09:08:55;;;;;;;9.63;2.22;;;;;;;14.65;49.44;98854.47;5530584;25;20472;-64
2024/04/12 09:11:25;;;;;;;3.28;1.90;;;;;;;14.74;49.40;98858.13;5563054;25;20007;-63
2024/04/12 09:13:54;;;;;;;3.33;1.95;;;;;;;14.76;49.58;98858.63;5563073;25;20012;-64
2024/04/12 09:16:20;;;;;;;8.32;2.20;;;;;;;14.82;49.29;98857.50;5563274;25;20001;-64
2024/04/12 09:18:50;;;;;;;4.10;2.15;;;;;;;14.85;49.23;98854.28;5557270;25;20001;-62
2024/04/12 09:21:36;;;;;;;5.15;2.50;;;;;;;14.80;49.39;98848.22;5542067;25;20016;-61
2024/04/12 09:24:09;;;;;;;3.20;1.88;;;;;;;14.80;49.26;98857.03;5531186;25;20073;-62
2024/04/12 09:26:55;;;;;;;2.05;1.77;;;;;;;14.90;48.84;98840.13;5529387;25;20355;-63
2024/04/12 09:29:27;;;;;;;4.28;2.10;;;;;;;14.91;48.67;98847.03;5529075;25;20585;-63
2024/04/12 09:34:58;;;;;;;5.18;2.00;;;;;;;15.11;48.31;98843.41;5557584;25;20005;-61
2024/04/12 09:40:04;;;;;;;8.23;2.38;;;;;;;15.04;48.21;98854.44;5569741;25;20040;-61
2024/04/12 09:45:45;;;;;;;6.00;2.40;;;;;;;14.87;48.59;98843.34;5512691;25;20159;-62
2024/04/12 10:38:32;;;;;;;6.43;1.83;;;;;;;15.33;48.67;98832.28;5562443;25;20001;-63
2024/04/12 10:40:58;;;;;;;5.15;2.00;;;;;;;15.35;48.57;98830.94;5561887;25;20037;-64
2024/04/12 10:43:25;;;;;;;8.38;2.30;;;;;;;15.45;48.36;98828.16;5560704;25;20004;-64
2024/04/12 10:45:52;;;;;;;3.92;1.77;;;;;;;15.56;47.92;98828.03;5567323;25;20488;-64
2024/04/12 10:48:20;;;;;;;5.90;1.80;;;;;;;15.71;47.56;98827.13;5560139;25;20461;-62
2024/04/12 10:50:48;;;;;;;8.98;2.80;;;;;;;15.63;47.87;98825.84;5561541;25;20005;-62
2024/04/12 10:53:17;;;;;;;5.40;2.20;;;;;;;15.45;48.42;98835.38;5562034;25;20556;-64
2024/04/12 10:55:44;;;;;;;5.72;2.00;;;;;;;15.34;48.35;98818.66;5561275;25;20497;-65
2024/04/12 10:58:14;;;;;;;5.75;1.85;;;;;;;15.32;48.50;98834.16;5560436;25;20004;-62
2024/04/12 11:00:47;;;;;;;5.93;1.92;;;;;;;15.33;48.93;98827.75;5561339;25;20009;-63
2024/04/12 11:03:23;;;;;;;2.65;1.98;;;;;;;15.24;48.89;98820.63;5549180;25;20008;-62
2024/04/12 11:05:51;;;;;;;3.78;2.08;;;;;;;15.20;49.27;98828.38;5538966;25;20005;-60
2024/04/12 11:08:19;;;;;;;4.22;1.90;;;;;;;15.21;49.28;98819.31;5542289;25;20458;-62
2024/04/12 11:10:54;;;;;;;4.68;1.83;;;;;;;15.29;49.42;98825.91;5512080;25;20020;-63
2024/04/12 11:13:35;;;;;;;12.27;2.30;;;;;;;15.31;49.08;98827.22;5475560;25;20013;-62
2024/04/12 11:32:34;;;;;;;4.22;1.70;;;;;;;14.43;51.50;98828.94;5542200;25;20380;-60
2024/04/12 11:35:01;;;;;;;6.57;2.22;;;;;;;14.37;51.89;98818.59;5537868;25;20018;-62
2024/04/12 11:37:29;;;;;;;6.07;2.00;;;;;;;14.30;51.66;98826.91;5544629;25;20137;-63
2024/04/12 11:39:56;;;;;;;4.05;1.73;;;;;;;14.25;52.22;98818.91;5513776;25;20072;-62
2024/04/12 11:42:23;;;;;;;5.88;2.42;;;;;;;14.21;52.55;98810.69;5545874;25;20016;-63
2024/04/12 11:44:53;;;;;;;5.22;1.80;;;;;;;14.22;52.27;98806.16;5543602;25;20048;-62
2024/04/12 11:47:19;;;;;;;3.15;1.95;;;;;;;14.26;52.45;98812.50;5538144;25;20003;-62
2024/04/12 11:49:45;;;;;;;15.50;3.25;;;;;;;14.25;52.34;98803.72;5541116;25;20012;-64
2024/04/12 11:52:16;;;;;;;7.25;2.05;;;;;;;14.25;52.29;98805.59;5544573;25;20005;-63
2024/04/12 11:54:46;;;;;;;4.65;1.73;;;;;;;14.16;52.82;98797.38;5532552;25;20067;-64
2024/04/12 11:57:12;;;;;;;6.18;2.60;;;;;;;14.14;52.72;98798.72;5539270;25;20014;-62
2024/04/12 11:59:38;;;;;;;5.30;2.10;;;;;;;14.15;52.79;98801.13;5535015;25;20139;-63
2024/04/12 12:02:05;;;;;;;12.98;2.53;;;;;;;14.14;52.73;98804.06;5540675;25;20020;-64
2024/04/12 12:04:32;;;;;;;3.72;1.95;;;;;;;14.13;53.01;98783.81;5523320;25;20102;-62
2024/04/12 12:07:00;;;;;;;7.00;2.70;;;;;;;14.32;52.19;98772.25;5549423;25;20462;-65
2024/04/12 12:09:31;;;;;;;2.85;2.00;;;;;;;14.47;52.17;98771.34;5538040;25;20005;-63
2024/04/12 12:12:00;;;;;;;7.70;2.25;;;;;;;14.60;51.97;98764.59;5541307;25;20440;-64
2024/04/12 12:14:27;;;;;;;6.20;1.95;;;;;;;14.60;51.81;98763.81;5540602;25;20534;-64
2024/04/12 12:16:57;;;;;;;2.40;1.92;;;;;;;14.67;51.65;98758.94;5529111;25;20070;-62
2024/04/12 12:19:23;;;;;;;7.50;2.20;;;;;;;14.66;51.94;98742.13;5537623;25;20072;-65
2024/04/12 12:21:49;;;;;;;4.03;1.85;;;;;;;14.53;52.24;98732.91;5526544;25;20009;-63
2024/04/12 12:24:15;;;;;;;2.90;1.92;;;;;;;14.37;52.44;98733.28;5530347;25;20429;-62
2024/04/12 12:26:41;;;;;;;5.95;2.08;;;;;;;14.36;52.61;98729.81;5535850;25;20029;-64
2024/04/12 12:29:07;;;;;;;4.40;2.15;;;;;;;14.37;52.36;98730.59;5539621;25;20362;-63
2024/04/12 12:31:33;;;;;;;3.58;2.00;;;;;;;14.34;52.31;98713.28;5541211;25;20002;-62
2024/04/12 12:33:59;;;;;;;5.88;1.90;;;;;;;14.32;52.30;98724.25;5559781;25;20418;-63
2024/04/12 12:36:28;;;;;;;3.72;2.00;;;;;;;14.32;52.44;98726.09;5550787;25;20017;-62
2024/04/12 12:38:54;;;;;;;5.63;1.92;;;;;;;14.29;52.57;98715.97;5541492;25;20001;-63
2024/04/12 12:41:20;;;;;;;8.80;2.03;;;;;;;14.30;52.12;98718.38;5537431;25;20001;-63
2024/04/12 12:43:47;;;;;;;3.22;1.92;;;;;;;14.32;52.41;98710.09;5539763;25;20071;-61
2024/04/12 12:46:17;;;;;;;2.97;1.80;;;;;;;14.41;52.41;98734.28;5540235;25;20005;-63
2024/04/12 12:48:43;;;;;;;3.72;1.80;;;;;;;14.53;52.11;98718.78;5538388;25;20127;-62
2024/04/12 12:51:09;;;;;;;3.72;1.65;;;;;;;14.60;51.66;98718.47;5546774;25;19997;-62
2024/04/12 12:53:36;;;;;;;4.55;1.65;;;;;;;14.65;51.75;98716.53;5559279;25;20015;-63
2024/04/12 12:56:06;;;;;;;3.40;1.50;;;;;;;14.70;51.16;98713.03;5537754;25;20021;-60
2024/04/12 12:58:34;;;;;;;5.47;1.63;;;;;;;14.64;51.17;98722.16;5496350;25;20008;-60
2024/04/12 13:01:00;;;;;;;3.17;1.83;;;;;;;14.63;51.14;98726.69;5545726;25;20008;-63
2024/04/12 13:03:30;;;;;;;4.28;1.63;;;;;;;14.68;51.16;98726.66;5543119;25;20002;-61
2024/04/12 13:05:57;;;;;;;7.35;2.15;;;;;;;14.80;50.97;98726.28;5551834;25;20015;-62
2024/04/12 13:08:25;;;;;;;3.67;1.80;;;;;;;14.92;50.58;98725.91;5544306;25;20005;-62
2024/04/12 13:10:54;;;;;;;4.03;1.60;;;;;;;14.93;50.20;98706.94;5510189;25;20047;-62